createdAt,value
2019-04-21T00:01:50.635Z,58
2019-04-21T00:12:07.097Z,59
2019-04-21T00:21:55.218Z,59
2019-04-21T00:32:01.386Z,59
2019-04-21T00:42:05.032Z,59
2019-04-21T00:52:20.700Z,60
2019-04-21T01:02:08.894Z,60
2019-04-21T01:12:06.742Z,60
2019-04-21T01:21:48.447Z,61
2019-04-21T01:32:10.089Z,62
2019-04-21T01:42:08.665Z,63
2019-04-21T01:52:17.438Z,64
2019-04-21T02:02:10.246Z,65
2019-04-21T02:12:08.511Z,66
2019-04-21T02:21:58.989Z,67
2019-04-21T02:32:08.681Z,68
2019-04-21T02:42:18.027Z,69
2019-04-21T02:52:30.807Z,70
2019-04-21T03:02:24.427Z,75
2019-04-21T03:12:28.447Z,83
2019-04-21T03:32:44.623Z,93
2019-04-21T03:42:16.487Z,95
2019-04-21T03:52:19.129Z,96
2019-04-21T04:02:22.618Z,96
2019-04-21T04:22:19.216Z,99
2019-04-21T04:32:22.943Z,99
2019-04-21T04:42:12.082Z,99
2019-04-21T04:52:26.993Z,99
2019-04-21T05:12:15.575Z,99
2019-04-21T05:22:16.683Z,99
2019-04-21T05:32:07.446Z,99
2019-04-21T05:41:58.536Z,99
2019-04-21T05:52:02.360Z,99
2019-04-21T06:02:18.355Z,99
2019-04-21T06:12:08.311Z,99
2019-04-21T06:22:07.407Z,99
2019-04-21T06:32:38.026Z,99
2019-04-21T06:52:23.311Z,96
2019-04-21T07:02:21.033Z,95
2019-04-21T07:12:05.618Z,68
2019-04-21T07:22:10.953Z,58
2019-04-21T07:32:09.168Z,63
2019-04-21T07:42:04.377Z,69
2019-04-21T07:52:10.743Z,69
2019-04-21T08:02:08.301Z,65
2019-04-21T08:12:03.632Z,50
2019-04-21T08:22:05.068Z,46
2019-04-21T08:42:10.010Z,41
2019-04-21T08:52:09.619Z,39
2019-04-21T09:02:29.079Z,37
2019-04-21T09:12:10.142Z,36
2019-04-21T09:22:05.474Z,36
2019-04-21T09:31:50.213Z,36
2019-04-21T09:41:53.590Z,35
2019-04-21T09:51:50.495Z,33
2019-04-21T10:01:58.559Z,32
2019-04-21T10:11:50.471Z,32
2019-04-21T10:21:50.126Z,32
2019-04-21T10:31:50.505Z,30
2019-04-21T10:41:49.494Z,31
2019-04-21T10:51:50.738Z,31
2019-04-21T11:01:50.416Z,30
2019-04-21T11:11:51.349Z,29
2019-04-21T11:21:49.706Z,28
2019-04-21T11:31:51.242Z,28
2019-04-21T11:41:49.887Z,29
2019-04-21T11:51:51.127Z,28
2019-04-21T12:01:51.843Z,27
2019-04-21T12:11:49.699Z,27
2019-04-21T12:22:01.074Z,28
2019-04-21T12:31:49.816Z,28
2019-04-21T12:41:50.772Z,27
2019-04-21T12:51:49.786Z,28
2019-04-21T13:01:50.731Z,28
2019-04-21T13:11:50.882Z,28
2019-04-21T13:21:49.965Z,27
2019-04-21T13:31:50.043Z,29
2019-04-21T13:42:02.598Z,28
2019-04-21T13:51:51.668Z,28
2019-04-21T14:01:51.958Z,29
2019-04-21T14:11:54.000Z,28
2019-04-21T14:21:53.070Z,27
2019-04-21T14:31:52.490Z,28
2019-04-21T14:41:51.582Z,28
2019-04-21T14:51:52.753Z,27
2019-04-21T15:01:51.818Z,28
2019-04-21T15:11:51.947Z,27
2019-04-21T15:21:52.384Z,27
2019-04-21T15:31:52.584Z,28
2019-04-21T15:41:52.485Z,27
2019-04-21T15:51:52.171Z,26
2019-04-21T16:01:52.494Z,28
2019-04-21T16:11:51.761Z,28
2019-04-21T16:21:52.765Z,28
2019-04-21T16:31:53.094Z,28
2019-04-21T16:41:52.108Z,28
2019-04-21T16:51:51.964Z,27
2019-04-21T17:01:52.442Z,29
2019-04-21T17:11:57.511Z,31
2019-04-21T17:21:52.134Z,33
2019-04-21T17:31:53.172Z,32
2019-04-21T17:42:05.101Z,33
2019-04-21T17:51:56.961Z,33
2019-04-21T18:02:07.517Z,33
2019-04-21T18:12:10.649Z,34
2019-04-21T18:21:56.602Z,34
2019-04-21T18:31:52.766Z,36
2019-04-21T18:42:09.170Z,39
2019-04-21T18:51:59.519Z,40
2019-04-21T19:01:59.696Z,39
2019-04-21T19:12:11.532Z,40
2019-04-21T19:22:04.268Z,40
2019-04-21T19:32:13.313Z,41
2019-04-21T19:42:00.211Z,42
2019-04-21T19:51:59.304Z,43
2019-04-21T20:01:52.304Z,44
2019-04-21T20:12:06.353Z,45
2019-04-21T20:21:53.448Z,45
2019-04-21T20:32:15.630Z,45
2019-04-21T20:42:08.507Z,45
2019-04-21T20:52:09.639Z,46
2019-04-21T21:02:09.961Z,47
2019-04-21T21:09:27.925Z,47
2019-04-21T21:12:14.613Z,46
2019-04-21T21:22:03.782Z,47
2019-04-21T21:32:16.069Z,47
2019-04-21T21:41:58.330Z,47
2019-04-21T21:52:02.573Z,48
2019-04-21T22:01:54.652Z,49
2019-04-21T22:11:55.099Z,50
2019-04-21T22:22:08.937Z,51
2019-04-21T22:32:00.035Z,52
2019-04-21T22:42:01.618Z,52
2019-04-21T22:51:53.774Z,53
2019-04-21T23:01:54.292Z,53
2019-04-21T23:11:55.846Z,54
2019-04-21T23:22:06.867Z,55
2019-04-21T23:32:08.224Z,56
2019-04-21T23:41:53.835Z,56
2019-04-21T23:51:58.895Z,57
